Time;durP1;ratioP1;P1;durP2;ratioP2;P2;SDS_P1;SDS_P2;PMS_P1;PMS_P2;Temp;Humidity;BMP_temperature;BMP_pressure;BME280_temperature;BME280_humidity;BME280_pressure;Samples;Min_cycle;Max_cycle;Signal;HPM_P1;HPM_P2
2022/11/25 00:01:22;;;;;;;17.20;11.98;;;;;;;17.34;50.86;101219.03;4917925;29;20056;-76
2022/11/25 00:03:50;;;;;;;15.07;12.10;;;;;;;17.35;50.68;101217.22;4915946;29;20064;-75
2022/11/25 00:06:21;;;;;;;15.77;11.85;;;;;;;17.34;50.80;101207.44;4919526;29;20052;-75
2022/11/25 00:08:52;;;;;;;14.60;12.32;;;;;;;17.34;50.92;101204.78;4919236;29;20048;-76
2022/11/25 00:11:19;;;;;;;15.73;11.90;;;;;;;17.34;50.76;101200.31;4919126;29;20048;-75
2022/11/25 00:13:47;;;;;;;15.90;12.63;;;;;;;17.33;50.69;101193.22;4919374;29;20075;-76
2022/11/25 00:16:17;;;;;;;13.75;10.57;;;;;;;17.33;50.73;101195.91;4919160;29;20052;-76
2022/11/25 00:18:50;;;;;;;13.77;11.98;;;;;;;17.33;50.62;101179.84;4919089;29;20052;-76
2022/11/25 00:21:20;;;;;;;14.95;12.95;;;;;;;17.33;50.48;101176.31;4919382;29;20059;-76
2022/11/25 00:23:52;;;;;;;13.70;11.85;;;;;;;17.31;50.70;101173.75;4919257;29;20059;-76
2022/11/25 00:26:21;;;;;;;14.25;11.90;;;;;;;17.33;50.61;101176.31;4919028;29;20059;-76
2022/11/25 00:28:50;;;;;;;13.90;11.73;;;;;;;17.32;50.80;101174.59;4900841;29;20056;-76
2022/11/25 00:31:19;;;;;;;15.45;10.52;;;;;;;17.32;50.83;101178.13;4919156;29;20048;-75
2022/11/25 00:33:48;;;;;;;14.70;11.25;;;;;;;17.31;51.18;101184.47;4900549;29;20056;-76
2022/11/25 00:36:19;;;;;;;14.63;11.18;;;;;;;17.32;50.65;101188.00;4917128;29;20052;-75
2022/11/25 00:38:51;;;;;;;13.90;11.55;;;;;;;17.30;50.80;101186.28;4919257;29;20040;-76
2022/11/25 00:46:49;;;;;;;13.73;11.60;;;;;;;17.30;50.81;101193.47;4901358;29;20067;-75
2022/11/25 00:49:17;;;;;;;12.75;10.65;;;;;;;17.30;50.76;101191.63;4901494;29;20409;-76
2022/11/25 00:51:45;;;;;;;17.70;11.45;;;;;;;17.30;50.81;101188.13;4885749;29;20052;-75
2022/11/25 00:54:12;;;;;;;13.07;10.80;;;;;;;17.29;50.77;101197.94;4901816;29;20083;-76
2022/11/25 00:56:40;;;;;;;14.38;10.77;;;;;;;17.29;50.77;101215.81;4901019;29;20063;-75
2022/11/25 00:59:08;;;;;;;13.73;10.98;;;;;;;17.29;50.93;101219.34;4919077;29;20044;-75
2022/11/25 01:01:35;;;;;;;15.05;11.35;;;;;;;17.29;50.84;101222.00;4905295;29;20524;-75
2022/11/25 01:04:03;;;;;;;14.32;11.27;;;;;;;17.29;50.76;101218.50;4904432;29;20071;-76
2022/11/25 01:06:33;;;;;;;12.90;10.65;;;;;;;17.28;50.67;101220.31;4920000;29;20051;-76
2022/11/25 01:09:00;;;;;;;15.30;11.38;;;;;;;17.29;50.92;101219.34;4920101;29;20058;-75
2022/11/25 01:11:28;;;;;;;14.95;11.35;;;;;;;17.28;50.77;101222.13;4937421;29;20035;-76
2022/11/25 01:13:57;;;;;;;12.98;10.57;;;;;;;17.29;50.92;101231.88;4937068;29;20066;-76
2022/11/25 01:16:28;;;;;;;14.10;10.73;;;;;;;17.27;50.80;101223.97;4937496;29;20059;-76
2022/11/25 01:18:57;;;;;;;15.13;10.90;;;;;;;17.28;50.85;101219.47;4920033;29;20052;-76
2022/11/25 01:21:31;;;;;;;12.43;10.07;;;;;;;17.27;50.96;101233.81;4936991;29;20484;-76
2022/11/25 01:24:01;;;;;;;12.57;9.68;;;;;;;17.27;50.63;101220.44;4937283;29;20075;-76
2022/11/25 01:26:29;;;;;;;12.60;10.00;;;;;;;17.27;50.77;101228.47;4936959;29;20074;-76
2022/11/25 01:29:00;;;;;;;13.13;10.32;;;;;;;17.26;50.77;101235.63;4912762;29;20048;-76
2022/11/25 01:31:30;;;;;;;11.65;10.30;;;;;;;17.26;50.83;101246.34;4917486;29;20040;-76
2022/11/25 01:34:00;;;;;;;11.88;9.38;;;;;;;17.25;50.79;101241.06;4917879;29;20496;-76
2022/11/25 01:36:28;;;;;;;12.50;9.45;;;;;;;17.26;50.85;101240.13;4916819;29;20392;-76
2022/11/25 01:38:58;;;;;;;11.75;9.55;;;;;;;17.25;50.85;101260.66;4899964;29;20531;-76
2022/11/25 01:41:29;;;;;;;12.13;10.25;;;;;;;17.26;50.67;101261.53;4917682;29;20047;-77
2022/11/25 01:44:11;;;;;;;12.00;9.80;;;;;;;17.25;50.89;101265.16;4900647;29;20056;-76
2022/11/25 01:46:50;;;;;;;12.15;9.50;;;;;;;17.25;50.86;101260.66;4918155;29;20044;-76
2022/11/25 01:49:29;;;;;;;14.55;10.85;;;;;;;17.24;50.87;101250.94;4918325;29;20056;-77
2022/11/25 01:52:22;;;;;;;13.88;9.93;;;;;;;17.24;50.91;101247.41;4917800;29;20400;-76
2022/11/25 01:54:55;;;;;;;12.23;10.05;;;;;;;17.24;50.90;101250.94;4900200;29;20424;-75
2022/11/25 01:57:44;;;;;;;;;;;;;;;17.24;50.89;101250.94;4901943;29;20048;-76
2022/11/25 02:00:12;;;;;;;12.23;9.80;;;;;;;17.24;50.80;101253.59;4900502;29;19930;-76
2022/11/25 02:02:49;;;;;;;10.18;8.35;;;;;;;17.23;50.79;101246.56;4931040;29;20396;-76
2022/11/25 02:05:20;;;;;;;11.65;10.13;;;;;;;17.24;50.83;101242.06;4918629;29;20055;-76
2022/11/25 02:07:50;;;;;;;11.30;9.73;;;;;;;17.23;50.89;101245.69;4934436;29;20059;-76
2022/11/25 02:10:36;;;;;;;13.07;10.23;;;;;;;17.22;50.80;101255.53;4918790;29;20526;-76
2022/11/25 02:13:04;;;;;;;11.25;9.25;;;;;;;17.21;50.77;101261.84;4919245;29;20420;-76
2022/11/25 02:15:34;;;;;;;12.10;9.50;;;;;;;17.22;50.87;101271.59;4918946;29;20059;-76
2022/11/25 02:18:03;;;;;;;12.23;9.68;;;;;;;17.22;50.92;101258.22;4934899;29;20074;-76
2022/11/25 02:20:31;;;;;;;11.57;9.00;;;;;;;17.23;51.12;101248.38;4934526;29;20377;-76
2022/11/25 02:23:24;;;;;;;12.38;9.73;;;;;;;17.21;50.77;101239.59;4918459;29;20052;-76
2022/11/25 02:25:54;;;;;;;12.75;10.02;;;;;;;17.21;50.88;101255.63;4918701;29;20051;-76
2022/11/25 02:28:28;;;;;;;12.68;9.25;;;;;;;17.21;50.79;101277.88;4919169;29;20052;-76
2022/11/25 02:30:56;;;;;;;10.50;8.90;;;;;;;17.20;51.00;101265.47;4903790;29;20045;-76
2022/11/25 02:33:24;;;;;;;10.88;8.30;;;;;;;17.21;51.04;101277.03;4899648;29;20060;-77
2022/11/25 02:35:56;;;;;;;13.65;9.00;;;;;;;17.21;50.88;101263.66;4899887;29;20068;-77
2022/11/25 02:38:38;;;;;;;10.75;8.90;;;;;;;17.20;50.94;101270.84;4899982;29;20056;-76
2022/11/25 02:41:32;;;;;;;12.55;9.70;;;;;;;17.20;50.77;101278.88;4899666;29;20056;-77
2022/11/25 02:44:03;;;;;;;10.65;9.32;;;;;;;17.20;50.92;101280.69;4934347;29;20074;-76
2022/11/25 02:46:32;;;;;;;10.80;8.75;;;;;;;17.19;50.95;101277.16;4918765;29;20055;-76
2022/11/25 02:49:01;;;;;;;9.52;8.32;;;;;;;17.19;50.98;101281.66;4904214;29;20048;-76
2022/11/25 02:51:40;;;;;;;13.38;9.07;;;;;;;17.20;50.91;101305.63;4915827;29;20044;-77
2022/11/25 02:54:09;;;;;;;11.75;9.38;;;;;;;17.19;51.01;101311.94;4915535;29;20416;-76
2022/11/25 02:56:37;;;;;;;12.05;9.18;;;;;;;17.19;51.06;101305.72;4900958;29;20059;-76
2022/11/25 02:59:05;;;;;;;11.45;8.57;;;;;;;17.18;51.10;101302.22;4904340;29;20063;-76
2022/11/25 03:01:34;;;;;;;10.05;8.75;;;;;;;17.18;50.92;101315.59;4907443;29;20483;-76
2022/11/25 03:04:05;;;;;;;10.82;8.38;;;;;;;17.19;51.04;101327.16;4922330;29;20063;-76
2022/11/25 03:06:33;;;;;;;9.10;8.00;;;;;;;17.18;51.35;101334.31;4922749;29;20620;-76
2022/11/25 03:09:01;;;;;;;10.57;8.32;;;;;;;17.18;50.97;101345.03;4922926;29;20059;-76
2022/11/25 03:14:16;;;;;;;10.45;8.77;;;;;;;17.18;50.95;101339.66;4922369;29;20056;-76
2022/11/25 03:16:43;;;;;;;10.57;8.32;;;;;;;17.17;51.15;101353.97;4922110;29;20051;-77
2022/11/25 03:19:11;;;;;;;10.70;8.77;;;;;;;17.18;51.01;101352.19;4922017;29;20058;-77
2022/11/25 03:21:38;;;;;;;8.95;7.95;;;;;;;17.18;51.02;101354.88;4939325;29;20047;-76
2022/11/25 03:24:06;;;;;;;10.57;8.50;;;;;;;17.17;51.12;101345.94;4922105;29;20492;-76
2022/11/25 03:26:33;;;;;;;11.50;8.82;;;;;;;17.17;51.03;101351.31;4939792;29;20407;-76
2022/11/25 03:29:01;;;;;;;12.00;7.85;;;;;;;17.17;51.11;101353.97;4939329;29;20047;-76
2022/11/25 03:31:28;;;;;;;10.30;8.65;;;;;;;17.16;51.33;101336.22;4910963;29;20055;-76
2022/11/25 03:33:56;;;;;;;11.45;7.82;;;;;;;17.17;50.81;101332.56;4913503;29;20052;-76
2022/11/25 03:36:23;;;;;;;11.05;8.60;;;;;;;17.17;51.08;101331.72;4918895;29;20075;-76
2022/11/25 03:38:50;;;;;;;10.57;8.43;;;;;;;17.16;51.11;101346.06;4903013;29;20075;-76
2022/11/25 03:41:18;;;;;;;11.25;8.30;;;;;;;17.16;51.05;101343.41;4903130;29;20056;-76
2022/11/25 03:43:46;;;;;;;10.77;7.97;;;;;;;17.17;51.11;101355.81;4903098;29;20067;-76
2022/11/25 03:46:14;;;;;;;12.10;8.45;;;;;;;17.16;51.12;101354.09;4902436;29;20063;-76
2022/11/25 03:48:41;;;;;;;11.13;7.95;;;;;;;17.17;51.07;101351.31;4920147;29;20056;-76
2022/11/25 03:51:08;;;;;;;9.55;8.35;;;;;;;17.15;51.04;101334.50;4919847;29;20051;-76
2022/11/25 03:53:37;;;;;;;9.70;7.80;;;;;;;17.15;51.01;101344.38;4902607;29;20400;-76
2022/11/25 03:56:07;;;;;;;12.68;8.48;;;;;;;17.15;51.01;101347.91;4918149;29;20064;-76
2022/11/25 03:58:34;;;;;;;11.57;9.00;;;;;;;17.15;51.18;101357.75;4903222;29;20055;-75
2022/11/25 04:01:04;;;;;;;10.25;8.45;;;;;;;17.15;51.14;101369.31;4886567;29;20051;-75
2022/11/25 04:03:31;;;;;;;11.18;8.60;;;;;;;17.14;50.94;101370.28;4898532;29;20052;-76
2022/11/25 04:05:59;;;;;;;10.18;8.50;;;;;;;17.14;51.01;101367.59;4898524;29;20064;-76
2022/11/25 04:08:27;;;;;;;11.63;8.43;;;;;;;17.14;50.98;101354.22;4899734;29;20527;-75
2022/11/25 04:10:55;;;;;;;11.05;8.70;;;;;;;17.13;51.04;101349.81;4898848;29;20060;-76
2022/11/25 04:13:26;;;;;;;10.05;8.38;;;;;;;17.15;51.01;101357.75;4899568;29;20060;-76
2022/11/25 04:15:53;;;;;;;10.85;7.72;;;;;;;17.13;50.95;101355.16;4900195;29;20056;-76
2022/11/25 04:18:21;;;;;;;11.10;8.02;;;;;;;17.13;51.13;101349.81;4900753;29;20055;-76
2022/11/25 04:20:52;;;;;;;8.73;7.43;;;;;;;17.13;50.97;101352.47;4914292;29;20048;-77
2022/11/25 04:23:19;;;;;;;10.73;8.32;;;;;;;17.13;50.87;101362.31;4867572;29;20052;-75
2022/11/25 04:26:01;;;;;;;12.00;8.20;;;;;;;17.13;50.94;101357.81;4898473;29;20066;-76
2022/11/25 04:28:35;;;;;;;10.77;8.40;;;;;;;17.12;51.02;101336.53;4899289;29;20060;-76
2022/11/25 04:31:07;;;;;;;11.77;8.60;;;;;;;17.12;50.97;101340.06;4898447;29;20056;-76
2022/11/25 04:33:37;;;;;;;9.70;7.55;;;;;;;17.12;51.09;101345.41;4914695;29;20500;-76
2022/11/25 04:36:05;;;;;;;9.25;8.20;;;;;;;17.12;51.15;101337.41;4901375;29;20056;-76
2022/11/25 04:38:32;;;;;;;10.77;7.85;;;;;;;17.11;50.96;101333.00;4938204;29;20048;-76
2022/11/25 04:41:01;;;;;;;10.85;7.30;;;;;;;17.12;51.02;101329.38;4920511;29;20507;-75
2022/11/25 04:43:33;;;;;;;9.05;7.18;;;;;;;17.11;51.06;101325.00;4919955;29;20407;-76
2022/11/25 04:46:05;;;;;;;9.40;7.35;;;;;;;17.11;50.89;101322.31;4920969;29;20523;-76
2022/11/25 04:48:43;;;;;;;10.98;7.78;;;;;;;17.10;50.99;101328.63;4919083;29;20389;-76
2022/11/25 04:51:13;;;;;;;10.45;7.70;;;;;;;17.11;51.21;101329.50;4916912;29;20063;-76
2022/11/25 04:53:41;;;;;;;9.10;7.38;;;;;;;17.11;51.05;101332.16;4886630;29;20404;-76
2022/11/25 04:56:15;;;;;;;10.18;7.57;;;;;;;17.09;50.95;101321.53;4900961;29;20059;-76
2022/11/25 05:01:30;;;;;;;10.38;8.13;;;;;;;17.09;50.83;101340.28;4904653;29;20052;-76
2022/11/25 05:04:18;;;;;;;8.35;7.10;;;;;;;17.10;50.85;101346.50;4879466;29;20120;-75
2022/11/25 05:06:46;;;;;;;9.65;6.95;;;;;;;17.10;50.97;101366.09;4878000;29;20068;-76
2022/11/25 05:09:15;;;;;;;9.27;7.43;;;;;;;17.09;50.85;101353.66;4878156;29;20060;-76
2022/11/25 05:11:44;;;;;;;9.20;6.80;;;;;;;17.09;50.76;101353.66;4878509;29;20056;-75
2022/11/25 05:14:11;;;;;;;8.55;6.90;;;;;;;17.08;51.07;101354.63;4878250;29;20048;-75
2022/11/25 05:16:39;;;;;;;9.30;7.68;;;;;;;17.08;51.09;101341.25;4862850;29;20057;-76
2022/11/25 05:19:09;;;;;;;9.68;7.68;;;;;;;17.08;51.01;101338.56;4878371;29;20060;-75
2022/11/25 05:21:37;;;;;;;11.32;8.05;;;;;;;17.08;50.67;101333.22;4862643;29;20049;-76
2022/11/25 05:24:05;;;;;;;9.43;7.10;;;;;;;17.09;51.03;101339.41;4878412;29;20387;-76
2022/11/25 05:26:33;;;;;;;10.27;7.18;;;;;;;17.08;51.22;101332.38;4862926;29;20537;-76
2022/11/25 05:29:00;;;;;;;8.90;6.97;;;;;;;17.07;51.05;101328.84;4877999;29;20053;-76
2022/11/25 05:31:30;;;;;;;8.10;7.22;;;;;;;17.08;51.02;101327.88;4878839;29;20064;-76
2022/11/25 05:34:01;;;;;;;8.68;6.80;;;;;;;17.07;51.11;101320.81;4853505;29;20430;-75
2022/11/25 05:36:30;;;;;;;10.35;7.35;;;;;;;17.07;50.91;101334.19;4870131;29;20049;-91
2022/11/25 05:38:58;;;;;;;9.80;7.88;;;;;;;17.06;50.98;101337.84;4880256;29;20059;-76
2022/11/25 05:41:42;;;;;;;9.15;7.53;;;;;;;17.08;50.98;101337.72;4883551;29;20067;-76
2022/11/25 05:44:09;;;;;;;10.00;7.15;;;;;;;17.08;51.19;101343.91;4900806;29;20052;-76
2022/11/25 05:46:37;;;;;;;8.63;6.05;;;;;;;17.07;50.97;101336.00;4900805;29;20074;-76
2022/11/25 05:49:05;;;;;;;9.95;6.88;;;;;;;17.08;51.09;101341.25;4900276;29;20497;-76
2022/11/25 05:51:32;;;;;;;9.55;7.18;;;;;;;17.07;51.15;101347.56;4918311;29;20048;-77
2022/11/25 05:54:03;;;;;;;11.38;7.50;;;;;;;17.08;51.10;101351.94;4900502;29;20056;-77
2022/11/25 05:56:33;;;;;;;8.15;6.88;;;;;;;17.07;51.09;101336.88;4901189;29;20059;-76
2022/11/25 05:59:04;;;;;;;11.75;7.00;;;;;;;17.07;51.17;101342.22;4917718;29;20056;-75
2022/11/25 06:01:52;;;;;;;8.73;7.18;;;;;;;17.08;50.97;101329.69;4923427;29;20048;-76
2022/11/25 06:04:20;;;;;;;7.82;6.47;;;;;;;17.07;50.84;101344.03;4936585;29;20043;-76
2022/11/25 06:06:48;;;;;;;9.25;7.07;;;;;;;17.07;50.85;101342.22;4918796;29;20496;-76
2022/11/25 06:09:17;;;;;;;7.65;6.55;;;;;;;17.07;50.97;101336.88;4919349;29;20107;-76
2022/11/25 06:11:44;;;;;;;9.40;6.60;;;;;;;17.07;50.91;101341.34;4918828;29;20060;-76
2022/11/25 06:14:12;;;;;;;9.10;6.80;;;;;;;17.06;50.93;101335.16;4936519;29;20048;-76
2022/11/25 06:16:40;;;;;;;9.52;7.18;;;;;;;17.05;50.64;101333.41;4936711;29;20059;-77
2022/11/25 06:19:19;;;;;;;8.95;6.55;;;;;;;17.05;50.99;101328.94;4918887;29;20056;-77
2022/11/25 06:21:46;;;;;;;10.65;6.43;;;;;;;17.05;50.83;101323.59;4919335;29;20054;-77
2022/11/25 06:24:15;;;;;;;11.35;7.30;;;;;;;17.05;50.72;101322.72;4919983;29;20059;-76
2022/11/25 06:26:44;;;;;;;7.88;6.45;;;;;;;17.05;50.85;101326.28;4935142;29;20062;-77
2022/11/25 06:29:12;;;;;;;9.27;6.60;;;;;;;17.04;50.84;101334.38;4919196;29;20052;-77
2022/11/25 06:31:43;;;;;;;9.82;7.13;;;;;;;17.05;50.83;101349.47;4936699;29;20055;-77
2022/11/25 06:34:36;;;;;;;8.20;6.65;;;;;;;17.04;50.81;101350.44;4911578;29;20059;-77
2022/11/25 06:37:06;;;;;;;10.05;6.47;;;;;;;17.05;50.82;101358.38;4903659;29;20059;-76
2022/11/25 06:39:33;;;;;;;7.90;6.53;;;;;;;17.05;50.82;101363.72;4923392;29;20047;-77
2022/11/25 06:42:01;;;;;;;8.60;6.82;;;;;;;17.05;50.93;101381.56;4937666;29;20416;-77
2022/11/25 06:44:28;;;;;;;8.23;6.72;;;;;;;17.05;50.83;101381.56;4921436;29;20052;-76
2022/11/25 06:46:55;;;;;;;8.73;6.65;;;;;;;17.05;50.94;101384.25;4921032;29;20052;-76
2022/11/25 06:49:23;;;;;;;8.70;7.28;;;;;;;17.05;50.96;101402.97;4919718;29;20400;-76
2022/11/25 06:51:50;;;;;;;8.00;6.20;;;;;;;17.04;50.78;101401.25;4885252;29;20057;-77
2022/11/25 06:54:17;;;;;;;9.30;6.70;;;;;;;17.03;50.61;101405.75;4902110;29;20060;-76
2022/11/25 06:56:50;;;;;;;8.98;7.00;;;;;;;17.03;50.72;101405.75;4901928;29;20497;-76
2022/11/25 06:59:17;;;;;;;9.27;7.22;;;;;;;17.04;50.75;101411.97;4902545;29;20496;-76
2022/11/25 07:01:45;;;;;;;9.23;6.65;;;;;;;17.03;50.67;101413.78;4902140;29;20048;-77
2022/11/25 07:04:13;;;;;;;9.55;6.57;;;;;;;17.03;50.78;101415.59;4901820;29;20075;-76
2022/11/25 07:06:40;;;;;;;8.50;6.85;;;;;;;17.03;50.68;101416.47;4884263;29;20071;-76
2022/11/25 07:09:08;;;;;;;8.18;6.43;;;;;;;17.02;50.72;101417.44;4901744;29;20113;-76
2022/11/25 07:11:38;;;;;;;9.18;7.13;;;;;;;17.02;50.80;101417.44;4901944;29;20049;-76
2022/11/25 07:14:10;;;;;;;8.93;6.50;;;;;;;17.04;50.80;101426.19;4901954;29;20045;-75
2022/11/25 07:16:39;;;;;;;9.18;6.57;;;;;;;17.03;50.67;101431.66;4900148;29;20497;-78
2022/11/25 07:19:11;;;;;;;10.18;6.85;;;;;;;17.02;50.64;101430.81;4901995;29;20049;-77
2022/11/25 07:21:39;;;;;;;8.23;7.03;;;;;;;17.02;50.62;101430.81;4901841;29;20056;-77
2022/11/25 07:24:07;;;;;;;7.47;6.25;;;;;;;17.02;50.74;101435.28;4901243;29;20478;-76
2022/11/25 07:26:37;;;;;;;9.23;6.93;;;;;;;17.02;50.72;101436.16;4901223;29;20048;-76
2022/11/25 07:29:08;;;;;;;9.10;6.43;;;;;;;17.02;50.77;101435.28;4901686;29;20051;-76
2022/11/25 07:31:55;;;;;;;10.25;7.20;;;;;;;17.01;50.73;101434.44;4902029;29;20049;-76
2022/11/25 07:34:22;;;;;;;8.25;6.57;;;;;;;17.01;50.96;101430.88;4901120;29;20071;-76
2022/11/25 07:36:50;;;;;;;9.77;7.47;;;;;;;17.02;50.82;101424.59;4900462;29;20493;-75
2022/11/25 07:39:20;;;;;;;7.93;6.90;;;;;;;17.02;50.98;101430.81;4901393;29;20057;-76
2022/11/25 07:41:52;;;;;;;10.52;7.78;;;;;;;17.02;50.84;101433.47;4902701;29;20057;-76
2022/11/25 07:44:20;;;;;;;9.85;6.18;;;;;;;17.02;50.72;101429.94;4919681;29;20044;-76
2022/11/25 07:47:00;;;;;;;8.77;6.88;;;;;;;17.01;50.88;101431.78;4902254;29;20476;-76
2022/11/25 07:49:27;;;;;;;8.55;6.75;;;;;;;17.02;50.70;101435.28;4920245;29;20051;-76
2022/11/25 07:51:58;;;;;;;8.90;6.68;;;;;;;17.01;50.78;101433.56;4920437;29;20484;-76
2022/11/25 07:54:25;;;;;;;11.00;6.75;;;;;;;17.01;50.86;101444.25;4920968;29;20051;-76
2022/11/25 07:56:53;;;;;;;12.02;7.32;;;;;;;17.02;50.64;101446.00;4920547;29;20059;-75
2022/11/25 07:59:22;;;;;;;9.68;6.90;;;;;;;17.01;50.76;101449.59;4920581;29;20056;-76
2022/11/25 08:01:54;;;;;;;9.10;7.30;;;;;;;17.02;50.64;101454.03;4920572;29;20055;-77
2022/11/25 08:04:22;;;;;;;10.40;7.20;;;;;;;17.01;50.84;101455.84;4920053;29;20044;-77
2022/11/25 08:06:51;;;;;;;10.70;7.10;;;;;;;17.02;51.44;101454.88;4919962;29;20055;-77
2022/11/25 08:09:21;;;;;;;11.07;6.78;;;;;;;17.02;51.47;101465.56;4920322;29;20048;-77
2022/11/25 08:11:49;;;;;;;12.48;7.22;;;;;;;17.04;51.57;101462.78;4919616;29;20056;-77
2022/11/25 08:14:17;;;;;;;8.38;6.95;;;;;;;17.04;51.28;101469.00;4919730;29;20048;-76
2022/11/25 08:16:45;;;;;;;12.35;7.55;;;;;;;17.04;51.16;101460.97;4902493;29;20048;-78
2022/11/25 08:19:16;;;;;;;15.27;8.30;;;;;;;17.04;51.18;101458.28;4920189;29;20067;-76
2022/11/25 08:21:46;;;;;;;7.68;6.75;;;;;;;17.07;51.13;101464.41;4919845;29;20063;-76
2022/11/25 08:24:16;;;;;;;7.95;6.63;;;;;;;17.05;51.01;101468.06;4903307;29;20048;-77
2022/11/25 08:26:43;;;;;;;13.13;7.05;;;;;;;17.06;51.23;101468.91;4919514;29;20048;-77
2022/11/25 08:29:15;;;;;;;11.38;7.43;;;;;;;17.07;50.88;101477.78;4920045;29;20059;-76
2022/11/25 08:31:43;;;;;;;12.45;6.97;;;;;;;17.07;50.96;101472.44;4920129;29;20412;-77
2022/11/25 08:34:17;;;;;;;10.88;7.40;;;;;;;17.08;50.90;101466.97;4920053;29;20044;-77
2022/11/25 08:36:45;;;;;;;10.27;7.10;;;;;;;17.08;50.96;101469.66;4901993;29;20055;-77
2022/11/25 08:39:16;;;;;;;11.30;6.40;;;;;;;17.08;50.72;101466.97;4919168;29;20055;-77
2022/11/25 08:42:04;;;;;;;10.95;7.35;;;;;;;17.10;50.71;101469.56;4919144;29;20052;-76
2022/11/25 08:44:32;;;;;;;9.23;7.00;;;;;;;17.09;50.72;101471.34;4920412;29;20048;-80
2022/11/25 08:46:59;;;;;;;10.45;6.93;;;;;;;17.11;50.73;101476.63;4920845;29;20052;-82
2022/11/25 08:49:29;;;;;;;8.52;6.47;;;;;;;17.12;50.26;101467.63;4920363;29;20055;-80
2022/11/25 08:51:59;;;;;;;16.70;8.95;;;;;;;17.11;47.94;101472.13;4920487;29;20059;-80
2022/11/25 08:54:27;;;;;;;11.45;7.45;;;;;;;17.11;49.49;101480.16;4919515;29;20067;-80
2022/11/25 08:56:54;;;;;;;11.57;8.23;;;;;;;17.11;49.82;101480.16;4920092;29;20048;-80
2022/11/25 08:59:21;;;;;;;7.38;6.35;;;;;;;17.12;50.07;101470.31;4919197;29;20056;-80
2022/11/25 09:01:49;;;;;;;8.80;6.68;;;;;;;17.12;50.17;101459.59;4903716;29;20060;-80
2022/11/25 09:04:16;;;;;;;10.48;6.88;;;;;;;17.12;50.09;101457.78;4920111;29;20075;-80
2022/11/25 09:06:43;;;;;;;9.88;6.68;;;;;;;17.13;50.07;101467.50;4920000;29;20052;-81
2022/11/25 09:09:11;;;;;;;9.93;7.18;;;;;;;17.14;50.23;101481.78;4920189;29;20059;-80
2022/11/25 09:11:38;;;;;;;7.05;5.57;;;;;;;17.14;50.02;101476.44;4919753;29;20063;-80
2022/11/25 09:14:05;;;;;;;13.30;6.50;;;;;;;17.14;50.06;101477.28;4920567;29;20044;-80
2022/11/25 09:16:33;;;;;;;10.80;6.63;;;;;;;17.14;50.49;101471.94;4919246;29;20102;-79
2022/11/25 09:19:00;;;;;;;16.48;10.93;;;;;;;17.15;52.54;101462.09;4918468;29;20060;-85
2022/11/25 09:21:28;;;;;;;15.98;10.07;;;;;;;17.17;52.10;101468.19;4887283;29;20063;-80
2022/11/25 09:23:55;;;;;;;22.42;12.00;;;;;;;17.17;53.27;101469.03;4919948;29;20044;-81
2022/11/25 09:26:34;;;;;;;18.83;10.95;;;;;;;17.18;53.00;101477.94;4920222;29;20044;-80
2022/11/25 09:29:02;;;;;;;20.00;11.77;;;;;;;17.19;53.81;101475.16;4920191;29;20044;-80
2022/11/25 09:31:30;;;;;;;26.02;15.48;;;;;;;17.21;55.27;101485.75;4919778;29;20408;-79
2022/11/25 09:33:58;;;;;;;30.50;16.52;;;;;;;17.22;55.31;101490.16;4919518;29;20063;-80
2022/11/25 09:36:25;;;;;;;31.70;15.70;;;;;;;17.22;55.40;101484.81;4920103;29;20052;-86
2022/11/25 09:38:53;;;;;;;24.40;13.25;;;;;;;17.24;55.54;101494.44;4902877;29;20062;-79
2022/11/25 09:47:42;;;;;;;21.70;12.70;;;;;;;17.23;54.51;101498.06;4920870;29;20059;-79
2022/11/25 09:50:33;;;;;;;23.85;11.27;;;;;;;17.23;52.39;101500.75;4919343;29;20113;-79
2022/11/25 09:53:23;;;;;;;27.77;13.07;;;;;;;17.23;53.16;101495.41;4919910;29;20412;-79
2022/11/25 09:55:57;;;;;;;19.52;12.27;;;;;;;17.23;53.79;101498.06;4919365;29;20080;-80
2022/11/25 09:58:52;;;;;;;21.98;12.38;;;;;;;17.23;53.87;101499.91;4919569;29;20055;-78
2022/11/25 10:01:23;;;;;;;18.15;11.40;;;;;;;17.23;53.77;101503.41;4919839;29;20424;-80
2022/11/25 10:04:10;;;;;;;17.50;11.23;;;;;;;17.23;53.57;101487.38;4919308;29;20040;-80
2022/11/25 10:06:55;;;;;;;13.85;10.60;;;;;;;17.23;52.87;101471.31;4913964;29;20048;-80
2022/11/25 10:09:26;;;;;;;17.25;10.82;;;;;;;17.22;53.19;101466.94;4912494;29;20056;-80
2022/11/25 10:12:26;;;;;;;20.25;10.10;;;;;;;17.23;52.36;101468.63;4919443;29;20055;-79
2022/11/25 10:15:03;;;;;;;19.38;10.32;;;;;;;17.23;52.67;101455.25;4899078;29;20048;-78
2022/11/25 10:17:33;;;;;;;19.30;10.45;;;;;;;17.23;52.32;101452.56;4919334;29;20052;-78
2022/11/25 10:20:13;;;;;;;17.73;9.98;;;;;;;17.24;52.65;101446.25;4918398;29;20051;-79
2022/11/25 10:22:46;;;;;;;16.02;9.68;;;;;;;17.22;52.94;101440.16;4919391;29;20484;-78
2022/11/25 10:25:23;;;;;;;14.32;8.75;;;;;;;17.23;52.93;101433.84;4918927;29;20054;-79
2022/11/25 10:28:00;;;;;;;14.80;9.82;;;;;;;17.23;52.88;101438.34;4918786;29;20075;-79
2022/11/25 10:30:40;;;;;;;14.45;9.05;;;;;;;17.22;52.65;101431.28;4895883;29;20063;-78
2022/11/25 10:33:19;;;;;;;12.45;8.65;;;;;;;17.22;52.60;101437.50;4918907;29;20056;-79
2022/11/25 10:35:56;;;;;;;13.30;8.38;;;;;;;17.23;52.52;101439.19;4900917;29;20071;-79
2022/11/25 10:38:31;;;;;;;14.32;8.57;;;;;;;17.22;52.63;101437.50;4917895;29;20048;-79
2022/11/25 10:41:02;;;;;;;12.70;8.68;;;;;;;17.23;52.39;101438.34;4918487;29;20060;-79
2022/11/25 10:43:35;;;;;;;13.07;8.05;;;;;;;17.21;52.42;101427.72;4917920;29;20554;-79
2022/11/25 10:46:18;;;;;;;11.07;8.25;;;;;;;17.21;52.34;101419.69;4916770;29;20041;-79
2022/11/25 10:49:03;;;;;;;14.25;8.82;;;;;;;17.21;52.33;101419.69;4917775;29;20400;-79
2022/11/25 10:51:46;;;;;;;14.20;8.00;;;;;;;17.22;52.43;101421.44;4911698;29;20059;-79
2022/11/25 10:54:25;;;;;;;10.68;7.75;;;;;;;17.22;52.29;101418.75;4917214;29;20055;-79
2022/11/25 10:56:59;;;;;;;15.25;8.82;;;;;;;17.21;52.12;101414.34;4918309;29;20048;-79
2022/11/25 10:59:34;;;;;;;12.30;7.90;;;;;;;17.21;52.44;101414.34;4918925;29;20063;-78
2022/11/25 11:02:23;;;;;;;12.00;7.88;;;;;;;17.21;52.15;101411.69;4918466;29;20055;-79
2022/11/25 11:05:10;;;;;;;11.85;8.13;;;;;;;17.21;52.18;101403.66;4918274;29;20059;-79
2022/11/25 11:07:40;;;;;;;14.00;8.43;;;;;;;17.21;52.13;101409.00;4877965;29;20082;-79
2022/11/25 11:10:13;;;;;;;14.07;8.32;;;;;;;17.21;52.19;101394.78;4878176;29;20061;-78
2022/11/25 11:13:05;;;;;;;11.82;7.78;;;;;;;17.21;52.13;101394.78;4878604;29;20068;-78
2022/11/25 11:15:53;;;;;;;12.68;7.25;;;;;;;17.20;52.06;101407.28;4878071;29;20049;-78
2022/11/25 11:18:36;;;;;;;13.50;7.68;;;;;;;17.21;52.08;101398.28;4880980;29;20134;-78
2022/11/25 11:21:20;;;;;;;10.48;7.47;;;;;;;17.21;51.96;101394.78;4882604;29;20064;-79
2022/11/25 11:23:51;;;;;;;13.27;7.45;;;;;;;17.21;51.94;101403.66;4866759;29;20089;-80
2022/11/25 11:26:28;;;;;;;12.70;8.02;;;;;;;17.21;51.92;101394.78;4883144;29;20073;-79
2022/11/25 11:29:15;;;;;;;10.88;8.57;;;;;;;17.22;51.96;101385.81;4882923;29;20057;-79
2022/11/25 11:32:01;;;;;;;11.32;7.40;;;;;;;17.21;52.11;101387.59;4881958;29;20077;-79
2022/11/25 11:34:53;;;;;;;11.40;7.65;;;;;;;17.21;51.81;101389.41;4881894;29;20060;-80
2022/11/25 11:37:42;;;;;;;12.05;8.30;;;;;;;17.21;51.85;101376.03;4882574;29;20060;-80
2022/11/25 11:40:18;;;;;;;12.30;7.95;;;;;;;17.20;51.87;101377.84;4882183;29;20193;-79
2022/11/25 11:43:23;;;;;;;11.70;8.10;;;;;;;17.20;51.87;101369.84;4881372;29;20061;-79
2022/11/25 11:46:05;;;;;;;14.05;7.22;;;;;;;17.20;51.85;101356.47;4899408;29;20068;-79
2022/11/25 11:48:51;;;;;;;11.93;8.02;;;;;;;17.20;51.85;101364.47;4902163;29;20508;-79
2022/11/25 11:51:25;;;;;;;10.30;7.47;;;;;;;17.21;51.74;101368.88;4902101;29;20049;-78
2022/11/25 11:54:12;;;;;;;11.23;7.80;;;;;;;17.20;51.75;101379.69;4902254;29;20505;-79
2022/11/25 11:56:42;;;;;;;13.07;7.78;;;;;;;17.20;51.63;101379.69;4902711;29;20049;-79